createdAt,value
2018-09-10T00:00:27.104Z,1.60
2018-09-10T00:03:32.051Z,1.70
2018-09-10T00:06:37.017Z,1.50
2018-09-10T00:09:41.966Z,1.83
2018-09-10T00:12:46.912Z,1.73
2018-09-10T00:15:51.896Z,1.60
2018-09-10T00:18:56.882Z,1.50
2018-09-10T00:22:01.868Z,1.50
2018-09-10T00:25:07.184Z,1.60
2018-09-10T00:28:12.113Z,1.57
2018-09-10T00:31:17.081Z,1.50
2018-09-10T00:34:22.032Z,1.90
2018-09-10T00:37:26.987Z,1.50
2018-09-10T00:40:31.892Z,1.70
2018-09-10T00:43:36.850Z,1.83
2018-09-10T00:46:41.774Z,1.47
2018-09-10T00:49:46.714Z,1.50
2018-09-10T00:52:51.724Z,1.70
2018-09-10T00:55:56.940Z,1.60
2018-09-10T00:59:01.894Z,1.53
2018-09-10T01:02:06.858Z,1.70
2018-09-10T01:05:11.807Z,1.40
2018-09-10T01:08:16.739Z,1.60
2018-09-10T01:11:21.681Z,1.57
2018-09-10T01:14:26.633Z,1.90
2018-09-10T01:17:31.568Z,1.50
2018-09-10T01:20:36.489Z,1.53
2018-09-10T01:23:41.444Z,1.40
2018-09-10T01:26:46.362Z,1.70
2018-09-10T01:29:51.285Z,1.53
2018-09-10T01:32:56.208Z,1.33
2018-09-10T01:36:01.175Z,1.60
2018-09-10T01:39:06.653Z,1.60
2018-09-10T01:42:11.611Z,1.40
2018-09-10T01:45:16.541Z,1.60
2018-09-10T01:48:21.481Z,1.67
2018-09-10T01:51:26.458Z,1.70
2018-09-10T01:54:31.649Z,1.43
2018-09-10T01:57:36.603Z,1.40
2018-09-10T02:00:41.529Z,1.50
2018-09-10T02:03:46.697Z,1.60
2018-09-10T02:06:51.689Z,1.70
2018-09-10T02:09:56.662Z,1.40
2018-09-10T02:13:01.601Z,1.30
2018-09-10T02:16:11.185Z,1.70
2018-09-10T02:19:16.148Z,1.43
2018-09-10T02:22:21.469Z,1.57
2018-09-10T02:25:26.439Z,1.40
2018-09-10T02:28:31.394Z,1.37
2018-09-10T02:31:36.353Z,1.30
2018-09-10T02:34:41.290Z,1.30
2018-09-10T02:37:46.238Z,1.50
2018-09-10T02:40:51.223Z,1.67
2018-09-10T02:43:56.173Z,1.60
2018-09-10T02:47:01.102Z,1.40
2018-09-10T02:50:06.079Z,1.53
2018-09-10T02:53:10.977Z,1.60
2018-09-10T02:56:15.898Z,1.43
2018-09-10T02:59:20.833Z,1.90
2018-09-10T03:02:25.821Z,2.63
2018-09-10T03:05:30.738Z,3.83
2018-09-10T03:08:35.647Z,3.37
2018-09-10T03:11:40.582Z,2.17
2018-09-10T03:14:45.501Z,1.50
2018-09-10T03:17:50.990Z,1.80
2018-09-10T03:20:55.862Z,1.60
2018-09-10T03:24:00.891Z,1.53
2018-09-10T03:27:05.822Z,1.60
2018-09-10T03:30:10.769Z,1.70
2018-09-10T03:33:15.757Z,1.53
2018-09-10T03:36:20.669Z,1.50
2018-09-10T03:39:25.612Z,1.77
2018-09-10T03:42:30.544Z,1.60
2018-09-10T03:45:35.497Z,1.60
2018-09-10T03:48:40.601Z,1.60
2018-09-10T03:51:45.542Z,1.70
2018-09-10T03:54:50.481Z,1.60
2018-09-10T03:57:55.418Z,1.67
2018-09-10T04:01:00.537Z,1.80
2018-09-10T04:04:05.539Z,1.77
2018-09-10T04:07:10.480Z,1.50
2018-09-10T04:10:15.441Z,1.87
2018-09-10T04:13:20.367Z,1.73
2018-09-10T04:16:25.328Z,2.13
2018-09-10T04:19:30.305Z,1.87
2018-09-10T04:22:35.246Z,1.70
2018-09-10T04:25:40.255Z,1.60
2018-09-10T04:28:45.180Z,1.80
2018-09-10T04:31:50.103Z,1.57
2018-09-10T04:34:55.045Z,1.87
2018-09-10T04:37:59.981Z,1.83
2018-09-10T04:41:04.952Z,1.90
2018-09-10T04:44:09.896Z,1.60
2018-09-10T04:47:14.841Z,2.03
2018-09-10T04:50:19.802Z,1.90
2018-09-10T04:53:25.233Z,1.50
2018-09-10T04:56:30.364Z,1.93
2018-09-10T04:59:35.285Z,1.57
2018-09-10T05:02:40.218Z,1.87
2018-09-10T05:05:45.198Z,1.70
2018-09-10T05:08:50.142Z,1.97
2018-09-10T05:11:55.106Z,2.23
2018-09-10T05:15:00.240Z,2.20
2018-09-10T05:18:05.186Z,1.70
2018-09-10T05:21:10.257Z,1.80
2018-09-10T05:24:15.165Z,2.10
2018-09-10T05:27:20.085Z,2.63
2018-09-10T05:30:25.012Z,2.63
2018-09-10T05:33:29.946Z,2.20
2018-09-10T05:36:34.880Z,1.93
2018-09-10T05:39:39.871Z,2.40
2018-09-10T05:42:44.811Z,3.87
2018-09-10T05:45:49.741Z,3.17
2018-09-10T05:48:54.685Z,2.50
2018-09-10T05:51:59.610Z,2.50
2018-09-10T05:55:04.611Z,1.87
2018-09-10T05:58:09.545Z,2.63
2018-09-10T06:01:14.453Z,2.33
2018-09-10T06:04:19.434Z,2.20
2018-09-10T06:07:24.360Z,2.30
2018-09-10T06:10:29.317Z,2.10
2018-09-10T06:13:34.234Z,2.50
2018-09-10T06:16:39.214Z,2.37
2018-09-10T06:19:44.104Z,2.83
2018-09-10T06:22:49.039Z,2.67
2018-09-10T06:25:53.989Z,2.73
2018-09-10T06:28:58.946Z,2.67
2018-09-10T06:32:03.861Z,2.43
2018-09-10T06:35:08.949Z,2.57
2018-09-10T06:38:13.931Z,2.70
2018-09-10T06:41:18.846Z,2.20
2018-09-10T06:44:23.780Z,2.87
2018-09-10T06:47:28.727Z,2.87
2018-09-10T06:50:33.669Z,2.97
2018-09-10T06:53:38.710Z,3.03
2018-09-10T06:56:43.685Z,2.47
2018-09-10T06:59:48.653Z,2.53
2018-09-10T07:02:53.640Z,3.00
2018-09-10T07:05:58.588Z,3.73
2018-09-10T07:09:05.431Z,3.43
2018-09-10T07:12:10.371Z,3.83
2018-09-10T07:15:15.428Z,3.40
2018-09-10T07:18:20.622Z,3.90
2018-09-10T07:21:25.607Z,4.30
2018-09-10T07:24:30.625Z,4.03
2018-09-10T07:27:35.601Z,4.00
2018-09-10T07:30:40.541Z,3.43
2018-09-10T07:33:45.476Z,3.10
2018-09-10T07:36:50.416Z,3.00
2018-09-10T07:39:55.465Z,3.40
2018-09-10T07:43:00.432Z,3.13
2018-09-10T07:46:05.600Z,4.07
2018-09-10T07:49:10.524Z,3.67
2018-09-10T07:52:15.445Z,3.50
2018-09-10T07:55:21.268Z,3.33
2018-09-10T07:58:26.580Z,3.30
2018-09-10T08:01:31.501Z,2.67
2018-09-10T08:04:36.468Z,3.67
2018-09-10T08:07:41.748Z,2.83
2018-09-10T08:10:47.667Z,2.63
2018-09-10T08:13:59.636Z,2.30
2018-09-10T08:17:08.350Z,2.67
2018-09-10T08:20:14.119Z,2.50
2018-09-10T08:23:19.405Z,2.60
2018-09-10T08:26:24.748Z,2.03
2018-09-10T08:29:30.492Z,1.30
2018-09-10T08:32:38.182Z,1.77
2018-09-10T08:35:45.898Z,1.80
2018-09-10T08:38:51.355Z,1.53
2018-09-10T08:41:56.914Z,1.60
2018-09-10T08:45:03.525Z,1.70
2018-09-10T08:48:08.762Z,1.63
2018-09-10T08:51:20.517Z,1.50
2018-09-10T08:54:25.927Z,1.60
2018-09-10T08:57:31.145Z,1.70
2018-09-10T09:00:36.483Z,1.60
2018-09-10T09:03:41.697Z,1.77
2018-09-10T09:06:46.954Z,1.60
2018-09-10T09:09:55.178Z,1.63
2018-09-10T09:13:00.559Z,1.70
2018-09-10T09:16:06.190Z,1.67
2018-09-10T09:19:15.081Z,1.70
2018-09-10T09:22:20.523Z,1.60
2018-09-10T09:25:25.640Z,1.60
2018-09-10T09:28:30.977Z,1.67
2018-09-10T09:31:35.987Z,1.67
2018-09-10T09:34:46.620Z,1.60
2018-09-10T09:38:55.411Z,1.33
2018-09-10T09:42:07.868Z,1.40
2018-09-10T09:45:19.146Z,1.20
2018-09-10T09:48:24.206Z,1.20
2018-09-10T09:51:29.182Z,1.10
2018-09-10T09:54:34.130Z,1.30
2018-09-10T09:57:39.088Z,1.33
2018-09-10T10:00:49.627Z,1.20
2018-09-10T10:03:55.667Z,1.07
2018-09-10T10:07:00.615Z,1.43
2018-09-10T10:10:05.651Z,1.10
2018-09-10T10:13:10.577Z,1.17
2018-09-10T10:16:15.580Z,1.00
2018-09-10T10:19:20.521Z,1.00
2018-09-10T10:22:25.482Z,1.23
2018-09-10T10:25:30.479Z,1.30
2018-09-10T10:28:35.420Z,1.40
2018-09-10T10:31:40.385Z,1.30
2018-09-10T10:34:45.337Z,1.40
2018-09-10T10:37:51.932Z,1.30
2018-09-10T10:40:57.081Z,1.23
2018-09-10T10:44:02.279Z,1.40
2018-09-10T10:47:07.382Z,1.30
2018-09-10T10:50:12.742Z,1.40
2018-09-10T10:53:17.908Z,1.23
2018-09-10T10:56:22.833Z,1.33
2018-09-10T10:59:28.054Z,1.30
2018-09-10T11:02:33.190Z,1.47
2018-09-10T11:05:38.504Z,1.37
2018-09-10T11:08:43.477Z,1.47
2018-09-10T11:11:48.482Z,1.63
2018-09-10T11:14:53.461Z,1.27
2018-09-10T11:17:58.442Z,1.10
2018-09-10T11:21:03.493Z,1.30
2018-09-10T11:24:08.496Z,1.33
2018-09-10T11:27:13.553Z,1.40
2018-09-10T11:30:18.585Z,1.30
2018-09-10T11:33:23.565Z,1.30
2018-09-10T11:36:28.542Z,1.27
2018-09-10T11:39:33.545Z,1.50
2018-09-10T11:42:38.581Z,1.30
2018-09-10T11:45:44.308Z,1.47
2018-09-10T11:48:49.272Z,1.60
2018-09-10T11:51:54.230Z,1.97
2018-09-10T11:55:01.281Z,1.60
2018-09-10T11:58:15.895Z,1.77
2018-09-10T12:01:21.305Z,1.77
2018-09-10T12:04:26.301Z,1.60
2018-09-10T12:07:31.269Z,2.10
2018-09-10T12:10:36.266Z,1.90
2018-09-10T12:13:41.424Z,1.60
2018-09-10T12:16:46.555Z,1.90
2018-09-10T12:19:51.780Z,1.83
2018-09-10T12:22:56.778Z,1.50
2018-09-10T12:26:01.806Z,1.70
2018-09-10T12:29:06.783Z,1.80
2018-09-10T12:32:11.772Z,1.90
2018-09-10T12:35:16.774Z,1.77
2018-09-10T12:38:21.777Z,1.90
2018-09-10T12:41:26.742Z,1.90
2018-09-10T12:44:31.727Z,1.80
2018-09-10T12:47:36.771Z,1.73
2018-09-10T12:50:41.829Z,2.10
2018-09-10T12:53:46.821Z,2.00
2018-09-10T12:56:51.801Z,1.90
2018-09-10T12:59:56.829Z,1.80
2018-09-10T13:03:01.898Z,1.97
2018-09-10T13:06:06.946Z,2.00
2018-09-10T13:09:11.903Z,1.97
2018-09-10T13:12:16.869Z,2.20
2018-09-10T13:15:21.861Z,2.37
2018-09-10T13:18:26.848Z,1.80
2018-09-10T13:21:31.874Z,2.33
2018-09-10T13:24:36.866Z,2.07
2018-09-10T13:27:41.812Z,2.30
2018-09-10T13:30:47.049Z,2.30
2018-09-10T13:33:52.228Z,2.27
2018-09-10T13:36:57.510Z,2.40
2018-09-10T13:40:02.539Z,2.40
2018-09-10T13:43:07.562Z,2.60
2018-09-10T13:46:12.521Z,2.20
2018-09-10T13:49:17.501Z,2.50
2018-09-10T13:52:22.475Z,2.20
2018-09-10T13:55:27.449Z,2.60
2018-09-10T13:58:32.447Z,2.30
2018-09-10T14:01:37.421Z,2.13
2018-09-10T14:04:42.385Z,2.43
2018-09-10T14:07:47.392Z,2.47
2018-09-10T14:10:52.417Z,2.27
2018-09-10T14:13:57.357Z,2.47
2018-09-10T14:17:02.329Z,2.33
2018-09-10T14:20:07.389Z,2.37
2018-09-10T14:23:12.321Z,2.53
2018-09-10T14:26:17.309Z,2.73
2018-09-10T14:29:22.253Z,2.70
2018-09-10T14:32:27.223Z,2.60
2018-09-10T14:35:32.224Z,2.63
2018-09-10T14:38:37.161Z,3.13
2018-09-10T14:41:42.107Z,2.60
2018-09-10T14:44:47.053Z,2.50
2018-09-10T14:47:52.300Z,2.87
2018-09-10T14:50:57.232Z,2.77
2018-09-10T14:54:02.185Z,2.77
2018-09-10T14:57:07.137Z,3.00
2018-09-10T15:00:17.828Z,3.13
2018-09-10T15:03:22.762Z,2.87
2018-09-10T15:06:27.688Z,3.40
2018-09-10T15:09:32.631Z,4.43
2018-09-10T15:12:37.566Z,4.07
2018-09-10T15:15:42.486Z,5.93
2018-09-10T15:18:47.530Z,5.33
2018-09-10T15:21:52.385Z,3.40
2018-09-10T15:24:57.334Z,4.00
2018-09-10T15:28:02.314Z,3.40
2018-09-10T15:31:07.248Z,3.20
2018-09-10T15:34:12.209Z,3.23
2018-09-10T15:37:17.217Z,2.90
2018-09-10T15:40:22.196Z,3.20
2018-09-10T15:43:27.210Z,2.73
2018-09-10T15:46:32.197Z,3.03
2018-09-10T15:49:37.190Z,2.93
2018-09-10T15:52:42.180Z,3.77
2018-09-10T15:55:48.606Z,3.20
2018-09-10T15:58:53.641Z,3.10
2018-09-10T16:01:58.592Z,3.17
2018-09-10T16:05:03.759Z,2.70
2018-09-10T16:08:08.731Z,2.53
2018-09-10T16:11:13.716Z,2.40
2018-09-10T16:14:18.738Z,2.93
2018-09-10T16:17:23.673Z,2.87
2018-09-10T16:20:28.813Z,2.60
2018-09-10T16:23:33.909Z,2.87
2018-09-10T16:26:38.861Z,3.23
2018-09-10T16:29:43.821Z,2.70
2018-09-10T16:32:49.116Z,2.63
2018-09-10T16:35:54.235Z,2.90
2018-09-10T16:38:59.199Z,2.70
2018-09-10T16:42:04.245Z,2.63
2018-09-10T16:45:09.359Z,2.77
2018-09-10T16:48:14.677Z,2.73
2018-09-10T16:51:19.623Z,2.60
2018-09-10T16:54:24.802Z,3.13
2018-09-10T16:57:29.705Z,3.07
2018-09-10T17:00:34.733Z,3.00
2018-09-10T17:03:39.787Z,3.20
2018-09-10T17:06:44.927Z,2.37
2018-09-10T17:09:49.890Z,2.77
2018-09-10T17:12:54.934Z,2.70
2018-09-10T17:16:00.015Z,3.07
2018-09-10T17:19:05.011Z,3.10
2018-09-10T17:22:09.985Z,2.90
2018-09-10T17:25:14.960Z,2.67
2018-09-10T17:28:20.509Z,3.03
2018-09-10T17:31:25.492Z,2.70
2018-09-10T17:34:30.448Z,2.50
2018-09-10T17:37:35.393Z,3.30
2018-09-10T17:40:40.356Z,3.10
2018-09-10T17:43:45.371Z,3.87
2018-09-10T17:46:50.471Z,3.83
2018-09-10T17:49:55.422Z,3.70
2018-09-10T17:53:00.556Z,3.67
2018-09-10T17:56:05.508Z,3.63
2018-09-10T17:59:10.505Z,2.60
2018-09-10T18:02:15.529Z,3.00
2018-09-10T18:05:20.985Z,2.80
2018-09-10T18:08:25.965Z,3.20
2018-09-10T18:11:30.958Z,2.50
2018-09-10T18:14:35.934Z,2.80
2018-09-10T18:17:40.876Z,3.17
2018-09-10T18:20:45.831Z,2.87
2018-09-10T18:23:50.748Z,3.10
2018-09-10T18:26:55.725Z,3.40
2018-09-10T18:30:00.765Z,3.00
2018-09-10T18:33:05.744Z,3.20
2018-09-10T18:36:10.718Z,3.17
2018-09-10T18:39:15.699Z,2.97
2018-09-10T18:42:20.684Z,3.07
2018-09-10T18:45:25.652Z,3.13
2018-09-10T18:48:30.597Z,3.00
2018-09-10T18:51:35.541Z,3.73
2018-09-10T18:54:40.493Z,3.07
2018-09-10T18:57:45.452Z,3.60
2018-09-10T19:00:50.498Z,3.27
2018-09-10T19:03:55.383Z,2.93
2018-09-10T19:07:00.336Z,3.30
2018-09-10T19:10:06.150Z,3.10
2018-09-10T19:13:11.453Z,3.47
2018-09-10T19:16:16.853Z,3.40
2018-09-10T19:19:22.113Z,3.27
2018-09-10T19:22:27.179Z,3.17
2018-09-10T19:25:32.452Z,3.27
2018-09-10T19:28:37.666Z,3.23
2018-09-10T19:31:42.928Z,4.00
2018-09-10T19:34:48.490Z,3.40
2018-09-10T19:37:53.455Z,4.20
2018-09-10T19:40:59.425Z,3.83
2018-09-10T19:44:04.798Z,3.30
2018-09-10T19:47:10.098Z,4.07
2018-09-10T19:50:15.444Z,3.37
2018-09-10T19:53:20.701Z,3.50
2018-09-10T19:56:25.642Z,3.70
2018-09-10T19:59:30.607Z,3.77
2018-09-10T20:02:35.520Z,3.40
2018-09-10T20:05:40.452Z,3.20
2018-09-10T20:08:45.413Z,3.43
2018-09-10T20:11:50.383Z,3.70
2018-09-10T20:14:55.326Z,3.53
2018-09-10T20:18:00.279Z,3.43
2018-09-10T20:21:05.485Z,3.73
2018-09-10T20:24:10.452Z,3.30
2018-09-10T20:27:15.419Z,2.93
2018-09-10T20:30:20.370Z,3.33
2018-09-10T20:33:25.345Z,3.67
2018-09-10T20:36:30.300Z,3.70
2018-09-10T20:39:35.273Z,3.50
2018-09-10T20:42:40.236Z,3.70
2018-09-10T20:45:45.191Z,3.90
2018-09-10T20:48:50.113Z,3.20
2018-09-10T20:51:55.165Z,4.27
2018-09-10T20:55:00.100Z,3.80
2018-09-10T20:58:05.745Z,3.70
2018-09-10T21:01:10.764Z,3.67
2018-09-10T21:04:15.709Z,3.40
2018-09-10T21:07:20.877Z,3.63
2018-09-10T21:10:25.816Z,3.57
2018-09-10T21:13:30.772Z,3.43
2018-09-10T21:16:35.723Z,3.53
2018-09-10T21:19:40.701Z,3.30
2018-09-10T21:22:45.645Z,3.33
2018-09-10T21:25:50.594Z,3.63
2018-09-10T21:28:55.537Z,3.70
2018-09-10T21:32:00.469Z,3.60
2018-09-10T21:35:05.562Z,4.00
2018-09-10T21:38:10.505Z,3.37
2018-09-10T21:41:15.517Z,3.63
2018-09-10T21:44:20.464Z,3.27
2018-09-10T21:47:25.400Z,3.40
2018-09-10T21:50:30.385Z,2.93
2018-09-10T21:53:35.385Z,3.10
2018-09-10T21:56:40.297Z,3.50
2018-09-10T22:03:26.137Z,3.60
2018-09-10T22:06:31.083Z,3.30
2018-09-10T22:09:36.053Z,3.70
2018-09-10T22:12:41.012Z,3.77
2018-09-10T22:15:46.034Z,3.60
2018-09-10T22:18:50.965Z,3.77
2018-09-10T22:21:56.002Z,3.97
2018-09-10T22:25:00.973Z,3.07
2018-09-10T22:28:05.976Z,3.10
2018-09-10T22:31:10.928Z,3.60
2018-09-10T22:34:15.834Z,3.40
2018-09-10T22:37:20.749Z,3.60
2018-09-10T22:40:25.686Z,3.13
2018-09-10T22:43:30.592Z,3.10
2018-09-10T22:46:35.800Z,3.57
2018-09-10T22:49:40.785Z,3.87
2018-09-10T22:52:45.706Z,4.43
2018-09-10T22:55:50.622Z,3.87
2018-09-10T22:58:55.555Z,4.10
2018-09-10T23:02:00.486Z,3.53
2018-09-10T23:05:05.498Z,3.60
2018-09-10T23:08:10.404Z,3.37
2018-09-10T23:11:15.306Z,3.57
2018-09-10T23:14:20.258Z,3.40
2018-09-10T23:17:25.177Z,3.30
2018-09-10T23:20:30.145Z,3.83
2018-09-10T23:23:35.086Z,3.17
2018-09-10T23:26:40.022Z,3.97
2018-09-10T23:29:44.980Z,3.60
2018-09-10T23:32:49.928Z,3.97
2018-09-10T23:35:54.840Z,3.80
2018-09-10T23:38:59.812Z,3.60
2018-09-10T23:42:04.954Z,3.17
2018-09-10T23:45:09.893Z,3.90
2018-09-10T23:48:14.846Z,4.07
2018-09-10T23:51:19.769Z,3.57
2018-09-10T23:54:24.716Z,3.70
2018-09-10T23:57:29.675Z,3.40
